Aviation Digital Data Service (ADDS)

Output produced by METARs form (1349 UTC 24 May 2019)
found at http://www.aviationweather.gov/metar/data/
 
TAF RJFF 241107Z 2412/2518 15011KT 9999 FEW040 
     BECMG 2500/2503 31010KT 
     BECMG 2512/2515 14006KT